Time;durP1;ratioP1;P1;durP2;ratioP2;P2;SDS_P1;SDS_P2;PMS_P1;PMS_P2;Temp;Humidity;BMP_temperature;BMP_pressure;BME280_temperature;BME280_humidity;BME280_pressure;Samples;Min_cycle;Max_cycle;Signal;HPM_P1;HPM_P2
2022/03/26 00:00:23;;;;;;;19.27;7.95;;;;;;;;;;4924364;29;20155;-69
2022/03/26 00:03:08;;;;;;;22.90;8.70;;;;;;;;;;4923844;29;20195;-69
2022/03/26 00:05:34;;;;;;;14.40;8.43;;;;;;;;;;4922451;29;20114;-69
2022/03/26 00:08:01;;;;;;;20.27;8.98;;;;;;;;;;4924872;29;20054;-70
2022/03/26 00:10:27;;;;;;;20.80;9.50;;;;;;;;;;4920262;29;20490;-72
2022/03/26 00:12:53;;;;;;;16.85;8.85;;;;;;;;;;4921097;29;20408;-71
2022/03/26 00:15:19;;;;;;;17.05;8.95;;;;;;;;;;4924248;29;20056;-70
2022/03/26 00:17:45;;;;;;;15.77;8.60;;;;;;;;;;4924909;29;20051;-71
2022/03/26 00:20:12;;;;;;;14.98;7.25;;;;;;;;;;4920911;29;20533;-70
2022/03/26 00:22:37;;;;;;;19.30;7.53;;;;;;;;;;4923670;29;20126;-72
2022/03/26 00:25:04;;;;;;;14.32;7.68;;;;;;;;;;4923474;29;20617;-70
2022/03/26 00:27:30;;;;;;;16.23;7.40;;;;;;;;;;4925321;29;20069;-69
2022/03/26 00:29:56;;;;;;;17.80;8.02;;;;;;;;;;4921531;29;20214;-70
2022/03/26 00:32:22;;;;;;;20.50;7.68;;;;;;;;;;4919428;29;20119;-71
2022/03/26 00:34:48;;;;;;;13.82;6.85;;;;;;;;;;4922748;29;20245;-71
2022/03/26 00:37:15;;;;;;;12.32;6.95;;;;;;;;;;4922913;29;20506;-70
2022/03/26 00:39:42;;;;;;;12.88;7.03;;;;;;;;;;4924219;29;20528;-71
2022/03/26 00:42:09;;;;;;;15.85;7.50;;;;;;;;;;4922745;29;20087;-72
2022/03/26 00:44:39;;;;;;;14.70;7.25;;;;;;;;;;4901743;29;20052;-73
2022/03/26 00:47:06;;;;;;;14.23;7.05;;;;;;;;;;4921396;29;20362;-72
2022/03/26 00:49:32;;;;;;;12.60;6.53;;;;;;;;;;4903100;29;20051;-71
2022/03/26 00:51:58;;;;;;;11.73;6.60;;;;;;;;;;4920231;29;20511;-68
2022/03/26 00:54:24;;;;;;;14.57;6.72;;;;;;;;;;4922779;29;20086;-69
2022/03/26 00:56:50;;;;;;;15.38;6.82;;;;;;;;;;4922193;29;20067;-70
2022/03/26 00:59:16;;;;;;;14.90;7.03;;;;;;;;;;4920705;29;20659;-70
2022/03/26 01:01:42;;;;;;;14.90;6.80;;;;;;;;;;4915105;29;20599;-70
2022/03/26 01:04:09;;;;;;;15.30;6.57;;;;;;;;;;4922009;29;20047;-69
2022/03/26 01:06:35;;;;;;;16.00;7.40;;;;;;;;;;4921403;29;20118;-68
2022/03/26 01:09:02;;;;;;;13.73;6.55;;;;;;;;;;4922190;29;20230;-69
2022/03/26 01:11:28;;;;;;;8.93;6.65;;;;;;;;;;4904005;29;20083;-71
2022/03/26 01:13:56;;;;;;;15.68;6.75;;;;;;;;;;4904574;29;20142;-67
2022/03/26 01:16:26;;;;;;;14.65;6.80;;;;;;;;;;4922306;29;20528;-69
2022/03/26 01:18:53;;;;;;;13.88;6.32;;;;;;;;;;4918982;29;20797;-68
2022/03/26 01:21:20;;;;;;;14.85;6.50;;;;;;;;;;4920507;29;20135;-70
2022/03/26 01:23:47;;;;;;;13.50;6.78;;;;;;;;;;4922158;29;20052;-68
2022/03/26 01:26:17;;;;;;;16.60;6.78;;;;;;;;;;4921538;29;20055;-69
2022/03/26 01:28:44;;;;;;;14.02;7.32;;;;;;;;;;4921388;29;20094;-69
2022/03/26 01:31:10;;;;;;;16.35;7.20;;;;;;;;;;4919314;29;20047;-68
2022/03/26 01:33:36;;;;;;;18.48;7.43;;;;;;;;;;4920456;29;20047;-68
2022/03/26 01:36:03;;;;;;;16.35;7.30;;;;;;;;;;4905073;29;20056;-69
2022/03/26 01:38:29;;;;;;;13.23;7.15;;;;;;;;;;4921921;29;20160;-67
2022/03/26 01:40:55;;;;;;;15.43;6.25;;;;;;;;;;4922735;29;20138;-69
2022/03/26 01:43:21;;;;;;;20.67;7.20;;;;;;;;;;4921951;29;20311;-70
2022/03/26 01:45:47;;;;;;;13.23;6.70;;;;;;;;;;4920749;29;20056;-68
2022/03/26 01:48:13;;;;;;;12.30;6.22;;;;;;;;;;4923695;29;20326;-69
2022/03/26 01:50:40;;;;;;;15.23;7.22;;;;;;;;;;4921115;29;20150;-68
2022/03/26 01:53:07;;;;;;;10.57;7.10;;;;;;;;;;4920846;29;20059;-69
2022/03/26 01:55:32;;;;;;;17.33;7.30;;;;;;;;;;4922909;29;20046;-72
2022/03/26 01:57:59;;;;;;;16.45;6.78;;;;;;;;;;4920278;29;20051;-68
2022/03/26 02:00:24;;;;;;;17.23;7.10;;;;;;;;;;4918585;29;20445;-69
2022/03/26 02:02:50;;;;;;;11.82;7.60;;;;;;;;;;4915220;29;20139;-70
2022/03/26 02:05:18;;;;;;;16.23;7.32;;;;;;;;;;4918247;29;20051;-69
2022/03/26 02:07:46;;;;;;;19.00;7.93;;;;;;;;;;4918552;29;20486;-68
2022/03/26 02:10:15;;;;;;;13.68;6.72;;;;;;;;;;4921860;29;20446;-68
2022/03/26 02:12:42;;;;;;;13.10;6.93;;;;;;;;;;4921201;29;20392;-68
2022/03/26 02:15:08;;;;;;;16.40;7.28;;;;;;;;;;4918780;29;20052;-68
2022/03/26 02:17:35;;;;;;;16.52;7.32;;;;;;;;;;4918343;29;20062;-68
2022/03/26 02:20:04;;;;;;;14.85;7.57;;;;;;;;;;4923118;29;20053;-68
2022/03/26 02:22:31;;;;;;;15.93;7.25;;;;;;;;;;4918898;29;20066;-69
2022/03/26 02:25:35;;;;;;;14.23;7.15;;;;;;;;;;4914360;29;20063;-68
2022/03/26 02:28:01;;;;;;;13.52;6.95;;;;;;;;;;4924688;29;20043;-69
2022/03/26 02:30:26;;;;;;;16.92;7.22;;;;;;;;;;4905437;29;20047;-68
2022/03/26 02:32:52;;;;;;;19.67;8.35;;;;;;;;;;4918112;29;20055;-68
2022/03/26 02:35:18;;;;;;;16.08;7.43;;;;;;;;;;4918791;29;20091;-70
2022/03/26 02:37:44;;;;;;;16.08;7.53;;;;;;;;;;4921017;29;20131;-68
2022/03/26 02:40:10;;;;;;;18.38;7.88;;;;;;;;;;4922176;29;20052;-69
2022/03/26 02:42:37;;;;;;;17.70;8.07;;;;;;;;;;4919307;29;20656;-69
2022/03/26 02:45:04;;;;;;;14.95;7.90;;;;;;;;;;4919228;29;20055;-69
2022/03/26 02:47:30;;;;;;;13.55;7.80;;;;;;;;;;4921753;29;20082;-68
2022/03/26 02:49:56;;;;;;;12.82;7.88;;;;;;;;;;4922319;29;20059;-68
2022/03/26 02:52:25;;;;;;;17.27;9.00;;;;;;;;;;4921671;29;20301;-68
2022/03/26 02:54:52;;;;;;;14.50;7.93;;;;;;;;;;4925162;29;20063;-68
2022/03/26 02:57:18;;;;;;;18.48;8.23;;;;;;;;;;4908794;29;20071;-69
2022/03/26 02:59:44;;;;;;;20.40;9.25;;;;;;;;;;4907505;29;20055;-69
2022/03/26 03:02:10;;;;;;;20.08;8.30;;;;;;;;;;4922002;29;20541;-69
2022/03/26 03:04:36;;;;;;;20.65;8.10;;;;;;;;;;4922234;29;20079;-68
2022/03/26 03:07:02;;;;;;;14.50;7.70;;;;;;;;;;4922497;29;20677;-68
2022/03/26 03:09:28;;;;;;;21.23;8.27;;;;;;;;;;4923363;29;20095;-68
2022/03/26 03:11:54;;;;;;;14.38;7.53;;;;;;;;;;4923277;29;20480;-68
2022/03/26 03:14:20;;;;;;;20.25;8.05;;;;;;;;;;4921564;29;20094;-68
2022/03/26 03:16:46;;;;;;;18.52;7.15;;;;;;;;;;4922026;29;20106;-67
2022/03/26 03:19:12;;;;;;;16.60;7.57;;;;;;;;;;4924215;29;20059;-70
2022/03/26 03:21:38;;;;;;;14.77;7.05;;;;;;;;;;4923078;29;20098;-68
2022/03/26 03:24:04;;;;;;;13.90;7.50;;;;;;;;;;4924279;29;20050;-67
2022/03/26 03:26:31;;;;;;;20.10;7.20;;;;;;;;;;4920157;29;20048;-68
2022/03/26 03:28:58;;;;;;;11.30;7.85;;;;;;;;;;4924256;29;20060;-68
2022/03/26 03:31:24;;;;;;;16.02;7.20;;;;;;;;;;4921461;29;20520;-67
2022/03/26 03:33:50;;;;;;;12.30;7.00;;;;;;;;;;4923965;29;20059;-67
2022/03/26 03:36:16;;;;;;;13.38;6.43;;;;;;;;;;4925278;29;20123;-71
2022/03/26 03:38:41;;;;;;;16.27;7.18;;;;;;;;;;4924544;29;20062;-68
2022/03/26 03:41:08;;;;;;;17.00;7.15;;;;;;;;;;4922252;29;20560;-69
2022/03/26 03:43:34;;;;;;;13.45;8.15;;;;;;;;;;4923685;29;20032;-66
2022/03/26 03:45:59;;;;;;;14.80;7.30;;;;;;;;;;4923284;29;20046;-68
2022/03/26 03:48:26;;;;;;;11.40;6.55;;;;;;;;;;4924236;29;20486;-67
2022/03/26 03:50:51;;;;;;;13.10;7.30;;;;;;;;;;4921209;29;20051;-68
2022/03/26 03:53:17;;;;;;;15.88;7.40;;;;;;;;;;4922654;29;20044;-67
2022/03/26 03:55:43;;;;;;;12.90;6.50;;;;;;;;;;4922985;29;20564;-70
2022/03/26 03:58:09;;;;;;;16.45;7.20;;;;;;;;;;4924856;29;20110;-72
2022/03/26 04:00:35;;;;;;;18.42;7.20;;;;;;;;;;4921774;29;20549;-67
2022/03/26 04:03:01;;;;;;;14.32;6.78;;;;;;;;;;4923518;29;20448;-67
2022/03/26 04:05:27;;;;;;;10.75;6.40;;;;;;;;;;4923826;29;20055;-69
2022/03/26 04:07:53;;;;;;;13.00;6.35;;;;;;;;;;4924900;29;20066;-69
2022/03/26 04:10:19;;;;;;;14.82;6.43;;;;;;;;;;4925235;29;20056;-69
2022/03/26 04:12:44;;;;;;;13.70;6.75;;;;;;;;;;4921149;29;20071;-70
2022/03/26 04:15:12;;;;;;;15.95;7.43;;;;;;;;;;4922375;29;21346;-69
2022/03/26 04:17:38;;;;;;;15.27;6.70;;;;;;;;;;4922281;29;20059;-67
2022/03/26 04:20:08;;;;;;;10.48;5.90;;;;;;;;;;4922099;29;20054;-68
2022/03/26 04:22:35;;;;;;;21.17;6.20;;;;;;;;;;4922133;29;20071;-68
2022/03/26 04:25:02;;;;;;;12.80;6.55;;;;;;;;;;4922110;29;20544;-67
2022/03/26 04:27:30;;;;;;;21.38;6.57;;;;;;;;;;4922781;29;20074;-67
2022/03/26 04:29:56;;;;;;;13.70;5.85;;;;;;;;;;4923305;29;20044;-67
2022/03/26 04:32:22;;;;;;;12.10;6.45;;;;;;;;;;4920417;29;20150;-68
2022/03/26 04:34:47;;;;;;;18.17;6.32;;;;;;;;;;4918421;29;20488;-66
2022/03/26 04:37:13;;;;;;;11.18;6.07;;;;;;;;;;4920579;29;20066;-66
2022/03/26 04:39:39;;;;;;;14.32;6.40;;;;;;;;;;4921961;29;20509;-67
2022/03/26 04:42:05;;;;;;;12.10;6.35;;;;;;;;;;4922239;29;20067;-67
2022/03/26 04:44:31;;;;;;;19.92;6.95;;;;;;;;;;4922182;29;20175;-68
2022/03/26 04:46:57;;;;;;;17.05;6.80;;;;;;;;;;4919839;29;20908;-68
2022/03/26 04:49:23;;;;;;;12.95;5.90;;;;;;;;;;4922921;29;20058;-68
2022/03/26 04:51:49;;;;;;;11.15;6.97;;;;;;;;;;4913533;29;20147;-69
2022/03/26 04:54:15;;;;;;;14.93;6.75;;;;;;;;;;4922686;29;20063;-68
2022/03/26 04:56:41;;;;;;;17.35;6.80;;;;;;;;;;4923221;29;20122;-68
2022/03/26 04:59:07;;;;;;;17.20;6.70;;;;;;;;;;4924582;29;20098;-69
2022/03/26 05:01:33;;;;;;;18.83;6.35;;;;;;;;;;4920985;29;20075;-68
2022/03/26 05:03:59;;;;;;;11.60;6.40;;;;;;;;;;4922376;29;20047;-69
2022/03/26 05:06:24;;;;;;;13.32;6.38;;;;;;;;;;4919235;29;20131;-66
2022/03/26 05:08:50;;;;;;;14.88;6.22;;;;;;;;;;4920558;29;20421;-67
2022/03/26 05:11:17;;;;;;;15.43;6.80;;;;;;;;;;4920289;29;20047;-69
2022/03/26 05:13:43;;;;;;;10.48;6.22;;;;;;;;;;4915012;29;20276;-68
2022/03/26 05:16:09;;;;;;;15.23;6.22;;;;;;;;;;4918683;29;20052;-66
2022/03/26 05:18:38;;;;;;;10.48;6.50;;;;;;;;;;4922189;29;20051;-68
2022/03/26 05:21:04;;;;;;;18.33;6.40;;;;;;;;;;4900366;29;20417;-68
2022/03/26 05:23:30;;;;;;;12.77;6.50;;;;;;;;;;4920829;29;20056;-68
2022/03/26 05:25:56;;;;;;;11.90;6.22;;;;;;;;;;4921077;29;20055;-68
2022/03/26 05:28:22;;;;;;;16.38;6.63;;;;;;;;;;4923007;29;20067;-68
2022/03/26 05:30:49;;;;;;;11.23;6.30;;;;;;;;;;4916351;29;20087;-68
2022/03/26 05:33:15;;;;;;;12.30;6.38;;;;;;;;;;4921062;29;20498;-67
2022/03/26 05:35:41;;;;;;;16.77;7.68;;;;;;;;;;4921591;29;20498;-69
2022/03/26 05:38:07;;;;;;;10.50;6.65;;;;;;;;;;4921363;29;20612;-69
2022/03/26 05:40:33;;;;;;;14.10;6.65;;;;;;;;;;4919336;29;20051;-67
2022/03/26 05:42:58;;;;;;;13.50;8.02;;;;;;;;;;4915007;29;20046;-68
2022/03/26 05:45:25;;;;;;;14.05;6.68;;;;;;;;;;4921352;29;21738;-68
2022/03/26 05:47:55;;;;;;;16.63;6.65;;;;;;;;;;4923464;29;20107;-70
2022/03/26 05:50:21;;;;;;;11.85;6.63;;;;;;;;;;4924326;29;20051;-67
2022/03/26 05:52:47;;;;;;;14.70;6.93;;;;;;;;;;4923112;29;20066;-68
2022/03/26 05:55:13;;;;;;;15.15;7.25;;;;;;;;;;4921660;29;20070;-67
2022/03/26 05:57:39;;;;;;;14.30;6.90;;;;;;;;;;4920615;29;20051;-68
2022/03/26 06:00:06;;;;;;;25.05;7.63;;;;;;;;;;4921148;29;20052;-70
2022/03/26 06:02:31;;;;;;;13.25;6.82;;;;;;;;;;4919884;29;20494;-66
2022/03/26 06:04:57;;;;;;;14.75;7.13;;;;;;;;;;4923443;29;20043;-66
2022/03/26 06:07:23;;;;;;;14.63;6.55;;;;;;;;;;4918034;29;20048;-68
2022/03/26 06:09:49;;;;;;;19.58;6.60;;;;;;;;;;4919565;29;20055;-69
2022/03/26 06:12:15;;;;;;;13.48;7.75;;;;;;;;;;4921338;29;20888;-68
2022/03/26 06:14:41;;;;;;;13.07;6.45;;;;;;;;;;4922336;29;20047;-68
2022/03/26 06:17:07;;;;;;;16.05;6.53;;;;;;;;;;4920263;29;20048;-68
2022/03/26 06:19:33;;;;;;;12.25;6.07;;;;;;;;;;4919300;29;20051;-66
2022/03/26 06:21:59;;;;;;;12.40;6.30;;;;;;;;;;4914004;29;20313;-72
2022/03/26 06:24:25;;;;;;;10.55;5.90;;;;;;;;;;4923376;29;20063;-67
2022/03/26 06:26:51;;;;;;;13.07;6.70;;;;;;;;;;4924469;29;20048;-67
2022/03/26 06:29:17;;;;;;;15.50;6.35;;;;;;;;;;4926877;29;20063;-67
2022/03/26 06:31:44;;;;;;;16.48;6.47;;;;;;;;;;4924940;29;20048;-68
2022/03/26 06:34:09;;;;;;;13.60;6.47;;;;;;;;;;4925280;29;20040;-66
2022/03/26 06:36:35;;;;;;;14.27;5.93;;;;;;;;;;4925117;29;20051;-66
2022/03/26 06:39:03;;;;;;;13.68;5.78;;;;;;;;;;4926461;29;20127;-68
2022/03/26 06:41:29;;;;;;;13.63;5.88;;;;;;;;;;4924745;29;20071;-67
2022/03/26 06:43:55;;;;;;;13.73;6.43;;;;;;;;;;4923753;29;20048;-68
2022/03/26 06:46:21;;;;;;;12.10;5.72;;;;;;;;;;4918744;29;20541;-66
2022/03/26 06:48:47;;;;;;;11.43;6.15;;;;;;;;;;4925757;29;20060;-66
2022/03/26 06:51:13;;;;;;;9.27;6.10;;;;;;;;;;4923976;29;20575;-67
2022/03/26 06:53:39;;;;;;;10.55;6.13;;;;;;;;;;4922738;29;20051;-68
2022/03/26 06:56:06;;;;;;;11.25;6.70;;;;;;;;;;4927063;29;20051;-67
2022/03/26 06:58:33;;;;;;;10.27;6.10;;;;;;;;;;4918225;29;20122;-67
2022/03/26 07:00:59;;;;;;;18.10;6.75;;;;;;;;;;4921371;29;20036;-67
2022/03/26 07:03:25;;;;;;;13.23;6.82;;;;;;;;;;4924683;29;20092;-68
2022/03/26 07:05:51;;;;;;;12.35;6.68;;;;;;;;;;4922297;29;20044;-67
2022/03/26 07:08:17;;;;;;;7.75;5.90;;;;;;;;;;4924556;29;20056;-68
2022/03/26 07:10:45;;;;;;;14.10;6.30;;;;;;;;;;4925757;29;20062;-66
2022/03/26 07:13:12;;;;;;;13.63;6.82;;;;;;;;;;4901629;29;20040;-68
2022/03/26 07:15:38;;;;;;;13.25;6.25;;;;;;;;;;4919557;29;20063;-68
2022/03/26 07:18:04;;;;;;;12.60;6.00;;;;;;;;;;4922858;29;20513;-70
2022/03/26 07:20:30;;;;;;;15.52;6.35;;;;;;;;;;4920966;29;20062;-70
2022/03/26 07:22:55;;;;;;;10.02;6.20;;;;;;;;;;4923909;29;20048;-67
2022/03/26 07:25:21;;;;;;;12.73;6.60;;;;;;;;;;4917478;29;20228;-68
2022/03/26 07:27:47;;;;;;;15.35;6.28;;;;;;;;;;4922909;29;20133;-68
2022/03/26 07:30:13;;;;;;;13.20;6.30;;;;;;;;;;4921847;29;20051;-67
2022/03/26 07:32:39;;;;;;;13.60;7.28;;;;;;;;;;4922105;29;20433;-68
2022/03/26 07:35:06;;;;;;;13.35;6.65;;;;;;;;;;4920199;29;20035;-72
2022/03/26 07:37:32;;;;;;;14.55;6.70;;;;;;;;;;4924989;29;20048;-68
2022/03/26 07:40:00;;;;;;;11.60;6.68;;;;;;;;;;4920338;29;20051;-67
2022/03/26 07:42:26;;;;;;;16.02;6.60;;;;;;;;;;4917717;29;20421;-68
2022/03/26 07:44:53;;;;;;;13.50;6.80;;;;;;;;;;4920256;29;20063;-66
2022/03/26 07:47:19;;;;;;;14.23;6.85;;;;;;;;;;4918202;29;20051;-68
2022/03/26 07:49:45;;;;;;;13.93;6.25;;;;;;;;;;4924796;29;20052;-67
2022/03/26 07:52:11;;;;;;;12.77;6.63;;;;;;;;;;4921408;29;20056;-67
2022/03/26 07:54:38;;;;;;;11.02;6.20;;;;;;;;;;4925824;29;20135;-67
2022/03/26 07:57:04;;;;;;;15.93;7.07;;;;;;;;;;4921026;29;20062;-69
2022/03/26 07:59:31;;;;;;;14.27;6.32;;;;;;;;;;4922005;29;20068;-67
2022/03/26 08:01:57;;;;;;;14.13;6.50;;;;;;;;;;4917534;29;20059;-68
2022/03/26 08:04:23;;;;;;;9.35;5.68;;;;;;;;;;4905019;29;20047;-67
2022/03/26 08:06:48;;;;;;;14.10;6.70;;;;;;;;;;4918034;29;20051;-69
2022/03/26 08:09:14;;;;;;;11.55;5.93;;;;;;;;;;4917938;29;20802;-67
2022/03/26 08:11:42;;;;;;;14.60;6.57;;;;;;;;;;4920721;29;20055;-69
2022/03/26 08:14:08;;;;;;;11.90;6.15;;;;;;;;;;4921198;29;20118;-72
2022/03/26 08:16:35;;;;;;;12.23;6.20;;;;;;;;;;4927229;29;20052;-70
2022/03/26 08:19:00;;;;;;;13.35;6.22;;;;;;;;;;4925387;29;20075;-70
2022/03/26 08:21:26;;;;;;;11.93;6.30;;;;;;;;;;4924535;29;20134;-70
2022/03/26 08:23:54;;;;;;;12.98;6.50;;;;;;;;;;4928247;29;20062;-69
2022/03/26 08:26:20;;;;;;;11.45;5.60;;;;;;;;;;4925810;29;20530;-68
2022/03/26 08:28:46;;;;;;;11.48;6.38;;;;;;;;;;4926503;29;20123;-68
2022/03/26 08:31:13;;;;;;;16.10;7.03;;;;;;;;;;4919474;29;20070;-68
2022/03/26 08:33:40;;;;;;;16.52;5.88;;;;;;;;;;4916907;29;20058;-70
2022/03/26 08:36:06;;;;;;;11.40;6.45;;;;;;;;;;4918851;29;20107;-69
2022/03/26 08:38:34;;;;;;;11.52;6.53;;;;;;;;;;4919976;29;20114;-69
2022/03/26 08:41:00;;;;;;;14.98;6.45;;;;;;;;;;4919627;29;20251;-70
2022/03/26 08:43:26;;;;;;;12.80;6.78;;;;;;;;;;4917923;29;20525;-68
2022/03/26 08:48:27;;;;;;;10.38;6.03;;;;;;;;;;5644927;23;20387;-77
2022/03/26 08:50:54;;;;;;;8.32;5.80;;;;;;;;;;4913094;29;20083;-77
2022/03/26 08:53:20;;;;;;;9.05;5.88;;;;;;;;;;4904784;29;20055;-68
2022/03/26 08:55:47;;;;;;;10.20;6.03;;;;;;;;;;4922281;29;20058;-70
2022/03/26 08:58:14;;;;;;;12.75;6.63;;;;;;;;;;4922975;29;20051;-68
2022/03/26 09:00:41;;;;;;;11.07;6.35;;;;;;;;;;4920796;29;20505;-76
2022/03/26 09:03:07;;;;;;;14.32;6.45;;;;;;;;;;4919253;29;20051;-70
2022/03/26 09:05:34;;;;;;;12.25;6.20;;;;;;;;;;4920709;29;20122;-68
2022/03/26 09:07:59;;;;;;;13.80;6.15;;;;;;;;;;4925321;29;20051;-75
2022/03/26 09:10:25;;;;;;;9.60;5.63;;;;;;;;;;4919696;29;20055;-74
2022/03/26 09:12:52;;;;;;;15.40;6.05;;;;;;;;;;4921305;29;20063;-78
2022/03/26 09:15:17;;;;;;;14.13;5.80;;;;;;;;;;4921059;29;20047;-71
2022/03/26 09:17:43;;;;;;;11.30;5.38;;;;;;;;;;4923250;29;20059;-71
2022/03/26 09:20:10;;;;;;;11.48;5.70;;;;;;;;;;4924596;29;20457;-68
2022/03/26 09:22:36;;;;;;;12.05;5.90;;;;;;;;;;4925104;29;20047;-83
2022/03/26 09:25:04;;;;;;;10.57;5.85;;;;;;;;;;4923399;29;20047;-74
2022/03/26 09:27:30;;;;;;;13.85;6.13;;;;;;;;;;4924706;29;20067;-73
2022/03/26 09:29:56;;;;;;;10.65;6.00;;;;;;;;;;4925190;29;20425;-80
2022/03/26 09:32:22;;;;;;;12.57;6.13;;;;;;;;;;4922653;29;20055;-69
2022/03/26 09:34:49;;;;;;;14.45;6.30;;;;;;;;;;4923828;29;20054;-80
2022/03/26 09:37:16;;;;;;;9.27;5.68;;;;;;;;;;4921819;29;20051;-70
2022/03/26 09:39:42;;;;;;;11.68;6.43;;;;;;;;;;4909371;29;20504;-67
2022/03/26 09:42:09;;;;;;;10.40;5.55;;;;;;;;;;4923820;29;20054;-69
2022/03/26 09:44:36;;;;;;;11.70;5.90;;;;;;;;;;4925093;29;20405;-68
2022/03/26 09:47:09;;;;;;;12.15;6.03;;;;;;;;;;4919199;29;20048;-71
2022/03/26 09:49:38;;;;;;;12.43;6.00;;;;;;;;;;4928049;29;20055;-72
2022/03/26 09:52:06;;;;;;;9.73;5.90;;;;;;;;;;4926308;29;20123;-66
2022/03/26 09:54:33;;;;;;;13.13;5.75;;;;;;;;;;4927070;29;20087;-74
2022/03/26 09:56:59;;;;;;;11.10;6.00;;;;;;;;;;4922612;29;20040;-72
2022/03/26 09:59:25;;;;;;;11.18;6.40;;;;;;;;;;4924333;29;20067;-79
2022/03/26 10:01:51;;;;;;;9.82;6.15;;;;;;;;;;4927220;29;20052;-75
2022/03/26 10:04:19;;;;;;;12.50;6.10;;;;;;;;;;4931309;29;20885;-77
2022/03/26 10:06:56;;;;;;;11.35;6.13;;;;;;;;;;4930845;29;20508;-71
2022/03/26 10:09:35;;;;;;;12.88;6.13;;;;;;;;;;4929708;29;20048;-71
2022/03/26 10:12:05;;;;;;;7.50;5.47;;;;;;;;;;4926218;29;20572;-67
2022/03/26 10:14:52;;;;;;;9.52;5.53;;;;;;;;;;4931969;29;20039;-70
2022/03/26 10:17:25;;;;;;;12.35;6.00;;;;;;;;;;4927518;29;20169;-69
2022/03/26 10:20:01;;;;;;;13.68;5.65;;;;;;;;;;4924997;29;20055;-73
2022/03/26 10:22:35;;;;;;;9.43;5.68;;;;;;;;;;4926308;29;20173;-78
2022/03/26 10:25:09;;;;;;;11.55;5.55;;;;;;;;;;4909178;29;20056;-72
2022/03/26 10:27:46;;;;;;;11.40;6.07;;;;;;;;;;4924961;29;20063;-73
2022/03/26 10:30:14;;;;;;;15.52;5.93;;;;;;;;;;4924351;29;20066;-68
2022/03/26 10:32:49;;;;;;;11.23;6.10;;;;;;;;;;4927409;29;20082;-80
2022/03/26 10:35:21;;;;;;;9.82;6.40;;;;;;;;;;4928031;29;20040;-83
2022/03/26 10:37:58;;;;;;;13.23;6.28;;;;;;;;;;4930634;29;20048;-68
2022/03/26 10:40:36;;;;;;;13.38;5.75;;;;;;;;;;4930697;29;20055;-70
2022/03/26 10:43:06;;;;;;;11.43;6.00;;;;;;;;;;4927414;29;20413;-67
2022/03/26 10:45:45;;;;;;;10.60;5.72;;;;;;;;;;4926807;29;20500;-69
2022/03/26 10:48:11;;;;;;;9.48;5.43;;;;;;;;;;4912853;29;20047;-75
2022/03/26 10:50:38;;;;;;;11.30;5.80;;;;;;;;;;4932673;29;21552;-77
2022/03/26 10:53:11;;;;;;;8.43;5.88;;;;;;;;;;4929655;29;20052;-71
2022/03/26 10:55:39;;;;;;;12.10;5.63;;;;;;;;;;4929762;29;20048;-72
2022/03/26 10:58:06;;;;;;;8.73;5.50;;;;;;;;;;4929301;29;20747;-66
2022/03/26 11:00:32;;;;;;;11.63;5.82;;;;;;;;;;4927128;29;20070;-69
2022/03/26 11:02:58;;;;;;;9.45;5.68;;;;;;;;;;4928227;29;20134;-68
2022/03/26 11:05:25;;;;;;;7.60;5.28;;;;;;;;;;4926336;29;20110;-69
2022/03/26 11:07:53;;;;;;;11.73;5.60;;;;;;;;;;4934588;29;20067;-68
2022/03/26 11:10:19;;;;;;;9.55;5.60;;;;;;;;;;4934648;29;20182;-69
2022/03/26 11:12:46;;;;;;;10.57;5.70;;;;;;;;;;4934588;29;20130;-68
2022/03/26 11:15:19;;;;;;;13.77;5.88;;;;;;;;;;4932442;29;20729;-69
2022/03/26 11:18:19;;;;;;;12.65;5.22;;;;;;;;;;4933614;29;20075;-77
2022/03/26 11:20:53;;;;;;;8.60;5.43;;;;;;;;;;4930139;29;20048;-69
2022/03/26 11:23:53;;;;;;;9.98;5.75;;;;;;;;;;4932754;29;20063;-68
2022/03/26 11:26:25;;;;;;;9.50;5.80;;;;;;;;;;4930098;29;20516;-71
2022/03/26 11:29:15;;;;;;;7.97;6.05;;;;;;;;;;4931228;29;20208;-73
2022/03/26 11:31:57;;;;;;;11.70;5.70;;;;;;;;;;4928270;29;20051;-69
2022/03/26 11:34:23;;;;;;;9.45;6.03;;;;;;;;;;4923805;29;20070;-79
2022/03/26 11:36:51;;;;;;;10.15;5.75;;;;;;;;;;4927454;29;20516;-67
2022/03/26 11:39:20;;;;;;;8.70;5.90;;;;;;;;;;4930397;29;20084;-72
2022/03/26 11:41:46;;;;;;;8.18;5.30;;;;;;;;;;4926401;29;20395;-75
2022/03/26 11:44:15;;;;;;;10.00;5.95;;;;;;;;;;4929073;29;20043;-68
2022/03/26 11:52:35;;;;;;;8.70;5.70;;;;;;;;;;4927172;29;20048;-67
2022/03/26 11:55:27;;;;;;;11.88;5.82;;;;;;;;;;4920765;29;20056;-71
2022/03/26 11:58:21;;;;;;;10.05;5.60;;;;;;;;;;4926925;29;20052;-69
2022/03/26 12:01:03;;;;;;;8.85;5.78;;;;;;;;;;4918993;29;20083;-69
2022/03/26 12:03:30;;;;;;;10.23;5.75;;;;;;;;;;4929117;29;20051;-70
2022/03/26 12:08:51;;;;;;;8.00;5.80;;;;;;;;;;4926374;29;20561;-67
2022/03/26 12:11:20;;;;;;;8.55;6.00;;;;;;;;;;4926679;29;20051;-72
2022/03/26 12:14:03;;;;;;;9.60;5.65;;;;;;;;;;4923173;29;20052;-72
2022/03/26 12:16:51;;;;;;;10.45;6.00;;;;;;;;;;4923703;29;20058;-67
2022/03/26 12:19:35;;;;;;;10.05;5.57;;;;;;;;;;4929511;29;20591;-71
2022/03/26 12:22:20;;;;;;;;;;;;;;;;;;4930102;29;20050;-67
2022/03/26 12:24:47;;;;;;;8.52;5.10;;;;;;;;;;4928515;29;19949;-66
2022/03/26 12:27:14;;;;;;;8.45;5.30;;;;;;;;;;4931089;29;20098;-64
2022/03/26 12:29:41;;;;;;;11.13;5.35;;;;;;;;;;4931406;29;20095;-67
2022/03/26 12:32:07;;;;;;;8.85;5.05;;;;;;;;;;4931415;29;20066;-65
2022/03/26 12:34:33;;;;;;;9.77;5.10;;;;;;;;;;4930573;29;20111;-65
2022/03/26 12:37:03;;;;;;;13.57;5.35;;;;;;;;;;4929557;29;20452;-65
2022/03/26 12:39:29;;;;;;;12.15;5.75;;;;;;;;;;4929183;29;20047;-68
2022/03/26 12:41:58;;;;;;;8.57;5.93;;;;;;;;;;4931465;29;20051;-72
2022/03/26 12:44:23;;;;;;;9.43;5.72;;;;;;;;;;4930178;29;20059;-68
2022/03/26 12:46:55;;;;;;;10.63;5.55;;;;;;;;;;4930071;29;20059;-70
2022/03/26 12:49:22;;;;;;;10.00;5.10;;;;;;;;;;4927220;29;20047;-63
2022/03/26 12:51:53;;;;;;;10.15;5.35;;;;;;;;;;4929915;29;20400;-67
2022/03/26 12:54:19;;;;;;;11.00;5.30;;;;;;;;;;4922800;29;21740;-65
2022/03/26 12:56:48;;;;;;;9.88;5.32;;;;;;;;;;4926236;29;20039;-76
2022/03/26 12:59:14;;;;;;;12.68;6.03;;;;;;;;;;4924162;29;20217;-67
2022/03/26 13:01:42;;;;;;;10.23;5.22;;;;;;;;;;4927790;29;20676;-75
2022/03/26 13:04:08;;;;;;;15.48;5.90;;;;;;;;;;4923315;29;20052;-68
2022/03/26 13:06:34;;;;;;;14.48;5.15;;;;;;;;;;4930463;29;20580;-65
2022/03/26 13:09:00;;;;;;;18.73;6.68;;;;;;;;;;4930230;29;20627;-67
2022/03/26 13:11:34;;;;;;;8.95;5.70;;;;;;;;;;4929470;29;20051;-68
2022/03/26 13:14:02;;;;;;;10.60;5.80;;;;;;;;;;4924006;29;20047;-65
2022/03/26 13:16:30;;;;;;;20.80;6.63;;;;;;;;;;4928392;29;20846;-71
2022/03/26 13:18:57;;;;;;;12.70;6.10;;;;;;;;;;4926167;29;20082;-67
2022/03/26 13:21:24;;;;;;;10.18;5.97;;;;;;;;;;4922578;29;20040;-70
2022/03/26 13:23:55;;;;;;;21.55;6.05;;;;;;;;;;4928758;29;20114;-66
2022/03/26 13:26:21;;;;;;;14.07;6.30;;;;;;;;;;4929662;29;20048;-69
2022/03/26 13:28:46;;;;;;;12.25;5.47;;;;;;;;;;4929296;29;20051;-65
2022/03/26 13:31:21;;;;;;;11.98;6.32;;;;;;;;;;4924821;29;20047;-67
2022/03/26 13:33:47;;;;;;;;;;;;;;;;;;4925651;29;20047;-66
2022/03/26 13:36:13;;;;;;;11.25;6.25;;;;;;;;;;4923235;29;19923;-66
2022/03/26 13:38:41;;;;;;;11.93;5.68;;;;;;;;;;4935178;29;20058;-67
2022/03/26 13:41:19;;;;;;;13.07;5.85;;;;;;;;;;4931600;29;20039;-69
2022/03/26 13:43:47;;;;;;;7.95;5.85;;;;;;;;;;4926677;29;20052;-64
2022/03/26 13:46:13;;;;;;;14.57;7.28;;;;;;;;;;4926128;29;20056;-76
2022/03/26 13:48:53;;;;;;;11.70;5.97;;;;;;;;;;4924472;29;20177;-69
2022/03/26 13:51:36;;;;;;;8.77;5.55;;;;;;;;;;4930504;29;20505;-66
2022/03/26 13:54:08;;;;;;;13.48;5.90;;;;;;;;;;4924092;29;20052;-67
2022/03/26 13:56:36;;;;;;;15.27;6.70;;;;;;;;;;4929824;29;20055;-64
2022/03/26 13:59:07;;;;;;;11.75;5.70;;;;;;;;;;4927192;29;20509;-67
2022/03/26 14:01:39;;;;;;;13.07;5.85;;;;;;;;;;4925380;29;20060;-65
2022/03/26 14:04:07;;;;;;;10.05;6.50;;;;;;;;;;4924264;29;20125;-64
2022/03/26 14:06:36;;;;;;;12.27;6.40;;;;;;;;;;4912165;29;20135;-68
2022/03/26 14:09:03;;;;;;;8.98;5.90;;;;;;;;;;4925834;29;20044;-65
2022/03/26 14:11:29;;;;;;;10.85;6.07;;;;;;;;;;4925424;29;20048;-68
2022/03/26 14:13:55;;;;;;;13.25;6.47;;;;;;;;;;4923573;29;20048;-75
2022/03/26 14:16:21;;;;;;;14.27;6.20;;;;;;;;;;4925716;29;20044;-67
2022/03/26 14:18:47;;;;;;;9.73;5.60;;;;;;;;;;4935100;29;20413;-72
2022/03/26 14:21:13;;;;;;;12.68;5.97;;;;;;;;;;4927023;29;20043;-66
2022/03/26 14:23:40;;;;;;;9.77;5.55;;;;;;;;;;4925198;29;20209;-69
2022/03/26 14:26:06;;;;;;;13.93;6.32;;;;;;;;;;4926274;29;20055;-72
2022/03/26 14:28:32;;;;;;;11.75;5.75;;;;;;;;;;4926700;29;20043;-75
2022/03/26 14:30:58;;;;;;;12.15;5.80;;;;;;;;;;4926797;29;20111;-71
2022/03/26 14:33:24;;;;;;;11.60;6.10;;;;;;;;;;4920904;29;20052;-71
2022/03/26 14:35:52;;;;;;;16.35;6.30;;;;;;;;;;4928531;29;20044;-73
2022/03/26 14:38:20;;;;;;;10.07;5.57;;;;;;;;;;4924451;29;20036;-72
2022/03/26 14:40:47;;;;;;;19.02;6.22;;;;;;;;;;4928813;29;20043;-78
2022/03/26 14:43:13;;;;;;;10.57;5.65;;;;;;;;;;4928960;29;20044;-72
2022/03/26 14:45:39;;;;;;;12.05;5.40;;;;;;;;;;4911084;29;20519;-69
2022/03/26 14:48:05;;;;;;;16.52;5.78;;;;;;;;;;4923375;29;20492;-74